createdAt,value
2018-09-09T00:01:30.455Z,101636.66
2018-09-09T00:03:59.350Z,101639.43
2018-09-09T00:06:27.682Z,101638.33
2018-09-09T00:08:56.076Z,101636.43
2018-09-09T00:11:24.444Z,101630.78
2018-09-09T00:13:52.767Z,101642.81
2018-09-09T00:16:21.713Z,101645.23
2018-09-09T00:18:50.104Z,101650.06
2018-09-09T00:21:18.422Z,101655.42
2018-09-09T00:23:46.771Z,101653.42
2018-09-09T00:26:16.096Z,101660.53
2018-09-09T00:28:44.512Z,101659.66
2018-09-09T00:31:12.926Z,101665.38
2018-09-09T00:33:41.300Z,101659.66
2018-09-09T00:36:09.648Z,101651.59
2018-09-09T00:38:37.995Z,101651.59
2018-09-09T00:41:06.626Z,101645.25
2018-09-09T00:43:34.973Z,101640.52
2018-09-09T00:46:03.309Z,101636.16
2018-09-09T00:48:31.660Z,101631.38
2018-09-09T00:51:05.438Z,101622.67
2018-09-09T00:53:39.106Z,101623.73
2018-09-09T00:56:07.476Z,101625.83
2018-09-09T00:58:35.841Z,101631.05
2018-09-09T01:01:09.475Z,101637.34
2018-09-09T01:03:37.848Z,101622.38
2018-09-09T01:06:06.379Z,101622.77
2018-09-09T01:08:34.711Z,101618.22
2018-09-09T01:11:03.294Z,101620.93
2018-09-09T01:13:31.764Z,101621.05
2018-09-09T01:16:00.117Z,101622.92
2018-09-09T01:18:28.446Z,101619.75
2018-09-09T01:20:56.781Z,101617.77
2018-09-09T01:23:25.116Z,101635.95
2018-09-09T01:25:54.167Z,101633.47
2018-09-09T01:28:22.882Z,101630.98
2018-09-09T01:30:51.456Z,101635.37
2018-09-09T01:33:19.810Z,101634.17
2018-09-09T01:35:48.165Z,101635.95
2018-09-09T01:38:16.982Z,101633.23
2018-09-09T01:40:45.454Z,101626.90
2018-09-09T01:43:13.814Z,101628.94
2018-09-09T01:45:42.299Z,101621.03
2018-09-09T01:48:10.692Z,101629.42
2018-09-09T01:50:39.059Z,101631.80
2018-09-09T01:53:07.433Z,101628.25
2018-09-09T01:55:35.824Z,101635.02
2018-09-09T01:58:04.196Z,101633.22
2018-09-09T02:00:32.606Z,101639.45
2018-09-09T02:03:00.974Z,101641.50
2018-09-09T02:05:29.331Z,101648.27
2018-09-09T02:07:57.666Z,101649.53
2018-09-09T02:10:26.046Z,101650.26
2018-09-09T02:12:54.398Z,101651.61
2018-09-09T02:15:22.807Z,101649.45
2018-09-09T02:17:51.154Z,101644.52
2018-09-09T02:20:19.530Z,101651.28
2018-09-09T02:22:47.881Z,101651.53
2018-09-09T02:25:16.236Z,101641.67
2018-09-09T02:27:44.598Z,101644.05
2018-09-09T02:30:12.992Z,101639.11
2018-09-09T02:32:41.499Z,101634.33
2018-09-09T02:35:09.810Z,101629.48
2018-09-09T02:37:38.169Z,101633.06
2018-09-09T02:40:06.513Z,101627.02
2018-09-09T02:42:34.834Z,101630.36
2018-09-09T02:45:03.169Z,101637.43
2018-09-09T02:47:31.505Z,101637.37
2018-09-09T02:49:59.869Z,101636.80
2018-09-09T02:52:28.227Z,101629.02
2018-09-09T02:54:56.847Z,101632.98
2018-09-09T02:57:25.208Z,101633.31
2018-09-09T02:59:53.566Z,101623.12
2018-09-09T03:02:21.961Z,101629.16
2018-09-09T03:04:50.360Z,101624.14
2018-09-09T03:07:18.742Z,101622.22
2018-09-09T03:09:47.087Z,101618.88
2018-09-09T03:12:15.443Z,101613.22
2018-09-09T03:14:43.808Z,101633.04
2018-09-09T03:17:12.487Z,101636.86
2018-09-09T03:19:40.866Z,101629.55
2018-09-09T03:22:09.224Z,101628.59
2018-09-09T03:24:37.588Z,101628.59
2018-09-09T03:27:05.941Z,101626.52
2018-09-09T03:29:34.246Z,101626.45
2018-09-09T03:32:02.597Z,101621.58
2018-09-09T03:34:30.975Z,101619.75
2018-09-09T03:36:59.756Z,101626.94
2018-09-09T03:39:28.124Z,101629.70
2018-09-09T03:41:56.475Z,101626.75
2018-09-09T03:44:24.816Z,101629.06
2018-09-09T03:46:53.197Z,101628.68
2018-09-09T03:49:21.859Z,101626.70
2018-09-09T03:51:50.215Z,101627.56
2018-09-09T03:54:18.555Z,101624.86
2018-09-09T03:56:46.901Z,101619.45
2018-09-09T03:59:15.238Z,101614.48
2018-09-09T04:01:43.587Z,101618.48
2018-09-09T04:04:11.956Z,101618.54
2018-09-09T04:06:40.353Z,101621.25
2018-09-09T04:09:09.033Z,101622.06
2018-09-09T04:11:37.981Z,101623.17
2018-09-09T04:14:06.807Z,101621.43
2018-09-09T04:16:35.166Z,101617.03
2018-09-09T04:19:03.545Z,101617.91
2018-09-09T04:21:36.882Z,101619.88
2018-09-09T04:24:05.427Z,101626.74
2018-09-09T04:26:33.799Z,101638.83
2018-09-09T04:29:02.178Z,101630.55
2018-09-09T04:31:30.527Z,101633.11
2018-09-09T04:33:58.906Z,101634.77
2018-09-09T04:36:27.285Z,101639.87
2018-09-09T04:38:55.664Z,101630.55
2018-09-09T04:41:24.030Z,101640.80
2018-09-09T04:43:52.387Z,101642.23
2018-09-09T04:46:20.822Z,101645.90
2018-09-09T04:48:49.179Z,101652.97
2018-09-09T04:51:17.630Z,101647.70
2018-09-09T04:53:46.004Z,101645.97
2018-09-09T04:56:14.353Z,101647.27
2018-09-09T04:58:42.697Z,101656.79
2018-09-09T05:01:11.233Z,101650.45
2018-09-09T05:03:39.535Z,101651.56
2018-09-09T05:06:07.875Z,101650.51
2018-09-09T05:08:36.218Z,101649.55
2018-09-09T05:11:04.595Z,101656.55
2018-09-09T05:13:32.915Z,101653.30
2018-09-09T05:16:01.390Z,101649.88
2018-09-09T05:18:29.838Z,101649.65
2018-09-09T05:20:58.160Z,101652.05
2018-09-09T05:23:26.495Z,101649.34
2018-09-09T05:25:54.869Z,101654.28
2018-09-09T05:28:23.211Z,101653.46
2018-09-09T05:30:51.784Z,101653.16
2018-09-09T05:33:20.112Z,101650.95
2018-09-09T05:35:48.439Z,101654.91
2018-09-09T05:38:16.805Z,101655.16
2018-09-09T05:40:45.110Z,101655.55
2018-09-09T05:43:13.469Z,101659.84
2018-09-09T05:45:41.800Z,101662.65
2018-09-09T05:48:10.101Z,101657.63
2018-09-09T05:50:38.421Z,101664.10
2018-09-09T05:53:06.906Z,101662.81
2018-09-09T05:55:35.240Z,101669.03
2018-09-09T05:58:03.579Z,101671.20
2018-09-09T06:00:31.938Z,101663.14
2018-09-09T06:03:00.289Z,101662.99
2018-09-09T06:05:28.632Z,101668.02
2018-09-09T06:07:56.942Z,101671.98
2018-09-09T06:10:25.250Z,101666.03
2018-09-09T06:12:53.596Z,101673.77
2018-09-09T06:15:21.912Z,101660.04
2018-09-09T06:17:50.240Z,101665.39
2018-09-09T06:20:18.583Z,101670.20
2018-09-09T06:22:46.907Z,101668.37
2018-09-09T06:25:16.072Z,101666.38
2018-09-09T06:27:44.388Z,101662.30
2018-09-09T06:30:12.731Z,101663.08
2018-09-09T06:32:41.059Z,101666.44
2018-09-09T06:35:09.614Z,101658.29
2018-09-09T06:37:38.092Z,101665.78
2018-09-09T06:40:06.460Z,101669.84
2018-09-09T06:42:35.097Z,101666.72
2018-09-09T06:45:03.448Z,101667.11
2018-09-09T06:47:31.787Z,101663.02
2018-09-09T06:50:00.103Z,101670.60
2018-09-09T06:52:28.411Z,101672.57
2018-09-09T06:54:56.756Z,101675.64
2018-09-09T06:57:25.074Z,101677.02
2018-09-09T06:59:53.412Z,101675.50
2018-09-09T07:02:21.798Z,101674.20
2018-09-09T07:04:50.140Z,101674.64
2018-09-09T07:07:18.484Z,101677.83
2018-09-09T07:09:46.878Z,101678.05
2018-09-09T07:12:15.203Z,101680.91
2018-09-09T07:14:43.554Z,101684.44
2018-09-09T07:17:11.965Z,101680.47
2018-09-09T07:19:40.254Z,101681.95
2018-09-09T07:22:08.619Z,101687.37
2018-09-09T07:24:36.963Z,101687.63
2018-09-09T07:27:05.266Z,101688.22
2018-09-09T07:29:33.636Z,101690.64
2018-09-09T07:32:01.992Z,101689.48
2018-09-09T07:34:30.347Z,101695.59
2018-09-09T07:36:59.246Z,101692.31
2018-09-09T07:39:27.580Z,101686.78
2018-09-09T07:41:55.930Z,101692.14
2018-09-09T07:44:24.294Z,101691.74
2018-09-09T07:46:52.619Z,101696.76
2018-09-09T07:49:20.998Z,101695.98
2018-09-09T07:51:49.360Z,101695.41
2018-09-09T07:54:17.720Z,101693.84
2018-09-09T07:56:46.073Z,101696.91
2018-09-09T07:59:14.424Z,101690.67
2018-09-09T08:01:42.757Z,101690.41
2018-09-09T08:04:11.129Z,101688.77
2018-09-09T08:06:39.487Z,101691.91
2018-09-09T08:09:09.155Z,101690.80
2018-09-09T08:11:38.265Z,101688.44
2018-09-09T08:14:07.843Z,101686.92
2018-09-09T08:16:36.341Z,101688.45
2018-09-09T08:19:04.895Z,101692.69
2018-09-09T08:21:34.208Z,101695.13
2018-09-09T08:24:02.557Z,101685.94
2018-09-09T08:26:30.881Z,101691.13
2018-09-09T08:28:59.224Z,101692.52
2018-09-09T08:31:27.555Z,101689.81
2018-09-09T08:33:55.887Z,101692.72
2018-09-09T08:36:24.239Z,101689.00
2018-09-09T08:38:52.597Z,101688.56
2018-09-09T08:41:20.963Z,101675.27
2018-09-09T08:43:49.315Z,101679.20
2018-09-09T08:46:17.654Z,101678.02
2018-09-09T08:48:45.980Z,101671.78
2018-09-09T08:51:14.342Z,101674.22
2018-09-09T08:53:42.669Z,101666.15
2018-09-09T08:56:10.995Z,101662.06
2018-09-09T08:58:39.331Z,101662.76
2018-09-09T09:01:07.671Z,101661.15
2018-09-09T09:03:35.995Z,101668.85
2018-09-09T09:06:04.331Z,101661.17
2018-09-09T09:08:32.685Z,101659.63
2018-09-09T09:11:01.021Z,101665.77
2018-09-09T09:13:29.362Z,101666.83
2018-09-09T09:15:58.490Z,101655.44
2018-09-09T09:18:26.896Z,101657.95
2018-09-09T09:20:55.700Z,101660.27
2018-09-09T09:23:24.049Z,101654.93
2018-09-09T09:25:53.512Z,101650.91
2018-09-09T09:28:22.936Z,101648.77
2018-09-09T09:30:52.014Z,101643.81
2018-09-09T09:33:20.388Z,101643.98
2018-09-09T09:35:53.071Z,101638.96
2018-09-09T09:38:22.524Z,101638.57
2018-09-09T09:40:51.719Z,101638.77
2018-09-09T09:43:20.086Z,101639.49
2018-09-09T09:45:48.404Z,101634.77
2018-09-09T09:48:16.736Z,101631.09
2018-09-09T09:50:45.061Z,101632.33
2018-09-09T09:53:13.588Z,101628.39
2018-09-09T09:55:41.944Z,101622.38
2018-09-09T09:58:10.284Z,101618.48
2018-09-09T10:00:43.992Z,101622.02
2018-09-09T10:03:12.314Z,101623.16
2018-09-09T10:05:40.644Z,101627.94
2018-09-09T10:08:08.974Z,101617.13
2018-09-09T10:10:37.299Z,101622.72
2018-09-09T10:13:05.634Z,101612.58
2018-09-09T10:15:33.992Z,101619.28
2018-09-09T10:18:02.348Z,101618.22
2018-09-09T10:20:30.700Z,101610.50
2018-09-09T10:22:59.027Z,101612.06
2018-09-09T10:25:27.386Z,101608.47
2018-09-09T10:27:55.713Z,101610.41
2018-09-09T10:30:24.071Z,101606.32
2018-09-09T10:32:52.394Z,101607.77
2018-09-09T10:35:20.733Z,101602.19
2018-09-09T10:37:49.045Z,101608.48
2018-09-09T10:40:17.380Z,101599.36
2018-09-09T10:42:45.708Z,101599.03
2018-09-09T10:45:14.032Z,101597.72
2018-09-09T10:47:42.355Z,101598.98
2018-09-09T10:50:11.573Z,101603.87
2018-09-09T10:52:39.949Z,101603.86
2018-09-09T10:55:08.280Z,101609.04
2018-09-09T10:57:36.854Z,101603.61
2018-09-09T11:00:05.719Z,101601.14
2018-09-09T11:02:34.055Z,101602.25
2018-09-09T11:05:02.372Z,101595.69
2018-09-09T11:07:30.702Z,101604.30
2018-09-09T11:09:59.032Z,101593.93
2018-09-09T11:12:30.030Z,101604.59
2018-09-09T11:14:59.652Z,101599.39
2018-09-09T11:17:28.697Z,101601.44
2018-09-09T11:19:57.381Z,101605.20
2018-09-09T11:22:25.972Z,101600.50
2018-09-09T11:24:54.326Z,101603.18
2018-09-09T11:27:22.673Z,101606.72
2018-09-09T11:29:51.034Z,101600.77
2018-09-09T11:32:19.359Z,101605.75
2018-09-09T11:34:47.685Z,101604.89
2018-09-09T11:37:16.032Z,101607.17
2018-09-09T11:39:44.360Z,101599.37
2018-09-09T11:42:12.741Z,101614.94
2018-09-09T11:44:41.074Z,101613.61
2018-09-09T11:47:09.413Z,101609.58
2018-09-09T11:49:37.759Z,101598.23
2018-09-09T11:52:06.109Z,101603.93
2018-09-09T11:54:34.437Z,101605.34
2018-09-09T11:57:02.793Z,101605.04
2018-09-09T11:59:31.150Z,101607.51
2018-09-09T12:01:59.517Z,101604.17
2018-09-09T12:04:27.961Z,101612.14
2018-09-09T12:06:56.300Z,101613.52
2018-09-09T12:09:24.636Z,101612.42
2018-09-09T12:11:52.955Z,101617.75
2018-09-09T12:14:21.293Z,101607.63
2018-09-09T12:16:49.611Z,101616.19
2018-09-09T12:19:17.947Z,101616.37
2018-09-09T12:21:46.300Z,101613.78
2018-09-09T12:24:14.688Z,101606.75
2018-09-09T12:26:43.300Z,101613.97
2018-09-09T12:29:11.772Z,101620.30
2018-09-09T12:31:40.156Z,101602.70
2018-09-09T12:34:08.512Z,101607.70
2018-09-09T12:36:36.852Z,101602.71
2018-09-09T12:39:07.057Z,101598.33
2018-09-09T12:41:35.381Z,101601.61
2018-09-09T12:44:09.021Z,101602.05
2018-09-09T12:47:42.618Z,101601.55
2018-09-09T12:50:10.969Z,101596.64
2018-09-09T12:52:39.318Z,101600.68
2018-09-09T12:55:07.637Z,101593.70
2018-09-09T12:57:35.985Z,101594.83
2018-09-09T13:00:04.380Z,101593.73
2018-09-09T13:02:32.732Z,101588.98
2018-09-09T13:05:01.087Z,101590.27
2018-09-09T13:07:29.449Z,101591.88
2018-09-09T13:09:57.764Z,101583.27
2018-09-09T13:12:30.429Z,101581.44
2018-09-09T13:14:59.509Z,101584.69
2018-09-09T13:17:27.880Z,101587.80
2018-09-09T13:19:57.216Z,101581.59
2018-09-09T13:22:25.545Z,101582.19
2018-09-09T13:24:53.919Z,101580.81
2018-09-09T13:27:22.250Z,101578.94
2018-09-09T13:29:50.591Z,101577.41
2018-09-09T13:32:18.912Z,101574.94
2018-09-09T13:34:47.257Z,101577.27
2018-09-09T13:37:15.571Z,101572.78
2018-09-09T13:39:43.912Z,101574.16
2018-09-09T13:42:12.254Z,101572.44
2018-09-09T13:44:40.893Z,101568.46
2018-09-09T13:47:09.258Z,101568.10
2018-09-09T13:49:38.168Z,101560.97
2018-09-09T13:52:07.052Z,101567.41
2018-09-09T13:54:35.416Z,101566.19
2018-09-09T13:58:28.189Z,101564.82
2018-09-09T14:00:56.560Z,101565.95
2018-09-09T14:03:24.904Z,101567.83
2018-09-09T14:05:53.241Z,101566.45
2018-09-09T14:08:21.583Z,101565.45
2018-09-09T14:10:49.928Z,101572.81
2018-09-09T14:13:18.276Z,101568.70
2018-09-09T14:15:46.624Z,101565.95
2018-09-09T14:18:14.926Z,101574.95
2018-09-09T14:20:43.274Z,101568.51
2018-09-09T14:23:11.588Z,101569.28
2018-09-09T14:25:39.936Z,101567.91
2018-09-09T14:28:08.313Z,101565.27
2018-09-09T14:30:36.618Z,101566.90
2018-09-09T14:33:05.139Z,101565.92
2018-09-09T14:35:33.484Z,101572.53
2018-09-09T14:38:01.833Z,101568.42
2018-09-09T14:40:30.234Z,101564.66
2018-09-09T14:42:58.552Z,101561.05
2018-09-09T14:45:26.896Z,101565.67
2018-09-09T14:47:55.253Z,101562.48
2018-09-09T14:50:23.577Z,101565.84
2018-09-09T14:52:51.929Z,101571.09
2018-09-09T14:55:20.311Z,101569.00
2018-09-09T14:57:48.656Z,101566.88
2018-09-09T15:00:17.075Z,101562.14
2018-09-09T15:02:45.401Z,101567.03
2018-09-09T15:05:13.728Z,101565.91
2018-09-09T15:07:42.068Z,101570.33
2018-09-09T15:10:10.447Z,101577.18
2018-09-09T15:12:38.770Z,101567.17
2018-09-09T15:15:07.116Z,101568.95
2018-09-09T15:17:35.436Z,101572.58
2018-09-09T15:20:03.796Z,101568.80
2018-09-09T15:22:32.295Z,101572.72
2018-09-09T15:25:00.575Z,101568.87
2018-09-09T15:27:28.900Z,101571.97
2018-09-09T15:29:57.229Z,101571.52
2018-09-09T15:32:26.220Z,101565.21
2018-09-09T15:34:54.548Z,101569.55
2018-09-09T15:37:22.923Z,101569.94
2018-09-09T15:39:51.284Z,101572.91
2018-09-09T15:42:19.639Z,101566.60
2018-09-09T15:44:48.007Z,101565.48
2018-09-09T15:47:16.345Z,101567.98
2018-09-09T15:49:44.687Z,101566.14
2018-09-09T15:52:13.116Z,101565.53
2018-09-09T15:54:41.445Z,101565.64
2018-09-09T15:57:09.782Z,101564.88
2018-09-09T15:59:38.134Z,101561.92
2018-09-09T16:02:06.854Z,101561.92
2018-09-09T16:04:35.436Z,101568.78
2018-09-09T16:07:03.763Z,101568.06
2018-09-09T16:09:32.088Z,101568.78
2018-09-09T16:12:00.438Z,101566.05
2018-09-09T16:14:28.787Z,101575.38
2018-09-09T16:16:57.125Z,101571.31
2018-09-09T16:19:25.478Z,101573.44
2018-09-09T16:21:53.791Z,101575.06
2018-09-09T16:24:22.173Z,101574.20
2018-09-09T16:26:50.509Z,101572.83
2018-09-09T16:29:18.847Z,101578.70
2018-09-09T16:31:47.189Z,101571.12
2018-09-09T16:34:15.544Z,101575.02
2018-09-09T16:36:43.878Z,101577.14
2018-09-09T16:39:12.229Z,101573.79
2018-09-09T16:41:40.543Z,101578.52
2018-09-09T16:44:08.908Z,101583.77
2018-09-09T16:46:37.269Z,101582.03
2018-09-09T16:49:05.626Z,101582.89
2018-09-09T16:51:33.942Z,101584.50
2018-09-09T16:54:02.270Z,101584.89
2018-09-09T16:56:30.602Z,101587.02
2018-09-09T16:58:58.931Z,101577.67
2018-09-09T17:01:27.264Z,101584.54
2018-09-09T17:03:55.578Z,101589.89
2018-09-09T17:06:23.892Z,101588.05
2018-09-09T17:08:52.235Z,101594.26
2018-09-09T17:11:20.563Z,101595.25
2018-09-09T17:13:49.306Z,101598.63
2018-09-09T17:16:17.889Z,101599.24
2018-09-09T17:18:46.202Z,101597.61
2018-09-09T17:21:14.591Z,101594.98
2018-09-09T17:23:42.881Z,101598.47
2018-09-09T17:26:11.198Z,101606.18
2018-09-09T17:28:39.511Z,101610.99
2018-09-09T17:31:07.880Z,101607.13
2018-09-09T17:33:36.193Z,101610.09
2018-09-09T17:36:04.521Z,101615.30
2018-09-09T17:38:33.119Z,101609.33
2018-09-09T17:41:01.519Z,101614.40
2018-09-09T17:43:29.856Z,101619.50
2018-09-09T17:45:58.176Z,101624.69
2018-09-09T17:48:26.506Z,101632.12
2018-09-09T17:50:54.844Z,101631.84
2018-09-09T17:53:23.169Z,101634.80
2018-09-09T17:55:51.503Z,101635.00
2018-09-09T17:58:19.824Z,101637.56
2018-09-09T18:00:48.207Z,101628.22
2018-09-09T18:03:16.538Z,101633.17
2018-09-09T18:05:44.858Z,101633.83
2018-09-09T18:08:13.208Z,101637.28
2018-09-09T18:10:41.548Z,101640.92
2018-09-09T18:13:09.892Z,101642.51
2018-09-09T18:15:38.199Z,101645.09
2018-09-09T18:18:06.533Z,101649.52
2018-09-09T18:20:34.884Z,101650.58
2018-09-09T18:23:03.188Z,101649.25
2018-09-09T18:25:31.516Z,101650.61
2018-09-09T18:27:59.903Z,101652.69
2018-09-09T18:30:28.244Z,101654.07
2018-09-09T18:32:56.582Z,101649.88
2018-09-09T18:35:24.937Z,101650.98
2018-09-09T18:37:53.315Z,101654.97
2018-09-09T18:40:21.668Z,101651.79
2018-09-09T18:42:50.139Z,101648.97
2018-09-09T18:45:18.510Z,101653.48
2018-09-09T18:47:46.823Z,101649.72
2018-09-09T18:50:15.141Z,101652.00
2018-09-09T18:52:43.503Z,101652.77
2018-09-09T18:55:12.269Z,101653.27
2018-09-09T18:57:40.574Z,101652.86
2018-09-09T19:00:09.043Z,101648.84
2018-09-09T19:02:37.363Z,101656.18
2018-09-09T19:05:05.754Z,101647.71
2018-09-09T19:07:34.145Z,101650.15
2018-09-09T19:10:02.571Z,101652.78
2018-09-09T19:12:30.905Z,101656.20
2018-09-09T19:14:59.267Z,101655.50
2018-09-09T19:17:27.589Z,101651.22
2018-09-09T19:19:55.962Z,101648.31
2018-09-09T19:22:24.321Z,101648.28
2018-09-09T19:24:52.664Z,101656.83
2018-09-09T19:27:20.992Z,101652.95
2018-09-09T19:29:49.326Z,101650.85
2018-09-09T19:32:17.676Z,101656.67
2018-09-09T19:34:46.025Z,101658.46
2018-09-09T19:37:14.383Z,101657.36
2018-09-09T19:39:42.699Z,101652.35
2018-09-09T19:42:11.057Z,101655.45
2018-09-09T19:44:39.418Z,101650.23
2018-09-09T19:47:07.768Z,101651.30
2018-09-09T19:49:36.110Z,101650.24
2018-09-09T19:52:04.483Z,101648.85
2018-09-09T19:54:32.936Z,101648.36
2018-09-09T19:57:01.267Z,101649.54
2018-09-09T19:59:29.666Z,101650.33
2018-09-09T20:01:58.007Z,101650.25
2018-09-09T20:04:26.355Z,101650.36
2018-09-09T20:06:54.697Z,101655.02
2018-09-09T20:16:23.284Z,101648.02
2018-09-09T20:18:51.697Z,101648.20
2018-09-09T20:21:20.042Z,101646.27
2018-09-09T20:23:48.941Z,101647.25
2018-09-09T20:26:17.291Z,101654.52
2018-09-09T20:28:45.704Z,101647.63
2018-09-09T20:31:14.088Z,101661.02
2018-09-09T20:33:42.453Z,101663.36
2018-09-09T20:36:10.828Z,101668.80
2018-09-09T20:38:39.612Z,101672.30
2018-09-09T20:41:07.975Z,101669.47
2018-09-09T20:43:36.315Z,101675.69
2018-09-09T20:46:04.698Z,101667.31
2018-09-09T20:48:33.111Z,101668.98
2018-09-09T20:51:01.458Z,101669.77
2018-09-09T20:53:29.801Z,101669.75
2018-09-09T20:55:58.187Z,101672.95
2018-09-09T20:58:26.629Z,101673.22
2018-09-09T21:00:55.007Z,101666.45
2018-09-09T21:03:23.968Z,101668.57
2018-09-09T21:05:52.557Z,101670.91
2018-09-09T21:08:20.943Z,101676.99
2018-09-09T21:10:49.343Z,101676.05
2018-09-09T21:13:17.723Z,101675.25
2018-09-09T21:15:46.170Z,101678.25
2018-09-09T21:18:14.581Z,101672.52
2018-09-09T21:20:42.973Z,101679.72
2018-09-09T21:23:11.337Z,101676.94
2018-09-09T21:25:40.743Z,101675.97
2018-09-09T21:28:09.247Z,101677.41
2018-09-09T21:30:37.634Z,101680.78
2018-09-09T21:33:06.180Z,101682.39
2018-09-09T21:35:34.569Z,101683.39
2018-09-09T21:38:02.913Z,101684.06
2018-09-09T21:40:31.246Z,101687.05
2018-09-09T21:42:59.581Z,101687.09
2018-09-09T21:45:27.949Z,101686.14
2018-09-09T21:47:56.292Z,101684.09
2018-09-09T21:50:24.900Z,101677.02
2018-09-09T21:52:53.398Z,101683.50
2018-09-09T21:55:21.777Z,101677.65
2018-09-09T21:57:50.109Z,101680.53
2018-09-09T22:00:18.899Z,101678.45
2018-09-09T22:02:47.324Z,101675.42
2018-09-09T22:05:15.698Z,101680.53
2018-09-09T22:07:44.085Z,101675.83
2018-09-09T22:10:12.455Z,101673.31
2018-09-09T22:12:40.876Z,101673.21
2018-09-09T22:15:09.251Z,101682.98
2018-09-09T22:17:37.592Z,101669.30
2018-09-09T22:20:06.024Z,101672.95
2018-09-09T22:22:34.933Z,101671.20
2018-09-09T22:25:03.304Z,101677.73
2018-09-09T22:27:31.694Z,101678.27
2018-09-09T22:30:00.079Z,101674.19
2018-09-09T22:32:28.545Z,101675.33
2018-09-09T22:34:57.209Z,101674.14
2018-09-09T22:37:25.587Z,101678.80
2018-09-09T22:39:54.030Z,101677.29
2018-09-09T22:42:22.400Z,101669.00
2018-09-09T22:44:51.333Z,101677.30
2018-09-09T22:47:19.682Z,101679.52
2018-09-09T22:49:48.015Z,101683.76
2018-09-09T22:52:16.370Z,101686.73
2018-09-09T22:54:44.713Z,101683.28
2018-09-09T22:57:14.219Z,101676.93
2018-09-09T22:59:42.597Z,101678.19
2018-09-09T23:02:10.949Z,101674.61
2018-09-09T23:04:40.021Z,101682.25
2018-09-09T23:07:08.388Z,101686.23
2018-09-09T23:09:36.729Z,101682.35
2018-09-09T23:12:05.098Z,101675.34
2018-09-09T23:14:33.511Z,101667.48
2018-09-09T23:17:01.864Z,101668.13
2018-09-09T23:19:30.247Z,101668.05
2018-09-09T23:21:58.661Z,101671.38
2018-09-09T23:24:26.995Z,101668.83
2018-09-09T23:26:55.349Z,101665.34
2018-09-09T23:29:23.724Z,101667.66
2018-09-09T23:31:52.104Z,101671.08
2018-09-09T23:34:20.470Z,101671.56
2018-09-09T23:36:48.833Z,101665.20
2018-09-09T23:39:17.209Z,101668.10
2018-09-09T23:41:45.655Z,101665.84
2018-09-09T23:44:14.004Z,101669.36
2018-09-09T23:46:42.375Z,101662.26
2018-09-09T23:49:10.796Z,101663.87
2018-09-09T23:51:39.179Z,101663.28
2018-09-09T23:54:07.714Z,101656.24
2018-09-09T23:56:36.306Z,101663.89
2018-09-09T23:59:04.727Z,101660.95
